• Join FlightAware (Why Join?)
  • Login
  • US Flag 
06:42AM EST


 

Airport Tracker/Info


-or-


 

Live Flight TrackerFlight Track Log ✈ ASQ5745 ✈ 01-Jun-2013 ✈ KIAD - KALB

Flight Track Log - Related Links

Times and Time Zones

All times are in EDT time to prevent confusion due to time zone crossing. See the ASQ5745 flight status page for this flight to view local times or setup timezone preferences in your user account.

Time Position Orientation Groundspeed Altitude Reporting Facility
EDT Latitude Longitude Course Direction KTS MPH feet Rate Location/Type
08:41AM 38.9500 -77.5000 North 172 198 1,700  Level Potomac TRACON
08:44AM 39.2247 -77.4500 North  Level FlightAware Approximate
08:44AM 39.0906 -77.5894 334° Northwest 252 290 6,600  Level Washington Center
08:45AM 39.3218 -77.4500 North  Level FlightAware Approximate
08:45AM 39.1681 -77.5700 11° North 257 296 9,000  Level Washington Center
08:46AM 39.4189 -77.4500 North  Level FlightAware Approximate
08:46AM 39.2456 -77.5428 15° North 278 320 11,200  Level Washington Center
08:47AM 39.5160 -77.4500 North  Level FlightAware Approximate
08:47AM 39.3217 -77.4831 31° Northeast 294 338 13,100  Level Washington Center
08:48AM 39.4078 -77.4450 19° North 313 360 14,000 960 Climbing Washington Center
08:49AM 39.5139 -77.4475 359° North 339 390 15,100 1,200 Climbing Washington Center
08:51AM 39.7325 -77.4525 359° North 401 461 17,700 1,080 Climbing New York Center
08:52AM 39.8450 -77.4525 360° North 407 468 18,400 720 Climbing New York Center
08:53AM 39.9558 -77.4847 347° North 407 468 19,200 780 Climbing New York Center
08:54AM 40.0636 -77.5331 341° North 407 468 20,000 780 Climbing New York Center
08:55AM 40.1731 -77.5872 339° North 415 478 20,800 780 Climbing New York Center
08:56AM 40.2856 -77.5872 360° North 406 467 21,600 600 Climbing New York Center
08:57AM 40.3806 -77.4931 37° Northeast 385 443 22,100 480 Climbing New York Center
08:58AM 40.4756 -77.3986 37° Northeast 404 465 22,600 480 Climbing New York Center
08:59AM 40.5619 -77.3086 38° Northeast 421 484 23,100 480 Climbing New York Center
09:00AM 40.6550 -77.2108 39° Northeast 426 490 23,600 480 Climbing New York Center
09:01AM 40.7522 -77.1075 39° Northeast 431 496 24,100 480 Climbing New York Center
09:02AM 40.8492 -77.0067 38° Northeast 431 496 24,600 480 Climbing New York Center
09:03AM 40.9442 -76.9056 39° Northeast 431 496 25,100 480 Climbing New York Center
09:04AM 41.0411 -76.8042 38° Northeast 438 504 25,600 480 Climbing New York Center
09:05AM 41.1358 -76.7025 39° Northeast 438 504 26,100 480 Climbing New York Center
09:06AM 41.2325 -76.6006 38° Northeast 438 504 26,600 420 Climbing New York Center
09:07AM 41.3378 -76.4908 38° Northeast 438 504 27,000 180 Climbing New York Center
09:08AM 41.4389 -76.3831 39° Northeast 438 504 27,000  Level New York Center
09:09AM 41.5356 -76.2747 40° Northeast 450 518 27,000  Level New York Center
09:10AM 41.6319 -76.1689 39° Northeast 445 512 27,000  Level New York Center
09:11AM 41.7261 -76.0653 39° Northeast 445 512 27,000 -240 Level New York Center
09:12AM 41.8122 -75.8189 65° Northeast 441 507 26,400 -900 Descending Boston Center
09:13AM 41.8667 -75.6714 64° Northeast 431 496 24,700 -1,200 Descending Boston Center
09:14AM 41.9792 -75.5933 27° Northeast 415 478 24,000 -360 Descending Boston Center
09:15AM 42.0897 -75.5150 28° Northeast 434 499 24,000  Level Boston Center
09:16AM 42.1622 -75.3811 54° Northeast 425 489 24,000  Level Boston Center
09:17AM 42.2181 -75.2353 63° Northeast 434 499 24,000  Level Boston Center
09:18AM 42.2736 -75.0889 63° Northeast 429 494 24,000  Level Boston Center
09:19AM 42.3292 -74.9425 63° Northeast 429 494 24,000 -300 Level Boston Center
09:20AM 42.3797 -74.8094 63° Northeast 435 501 23,500 -2,520 Descending Boston Center
09:21AM 42.4372 -74.6458 64° Northeast 440 506 19,100 -4,260 Descending Boston Center
09:22AM 42.4789 -74.5458 61° Northeast 440 506 16,400 -3,780 Descending Boston Center
09:22AM 42.4922 -74.4983 69° East 435 501 15,200 -3,840 Descending Boston Center
09:23AM 42.5314 -74.3983 62° Northeast 427 491 12,500 -3,720 Descending Boston Center
09:23AM 42.5403 -74.3703 67° East 417 480 11,500 -2,400 Descending Boston Center
09:24AM 42.5753 -74.2783 63° Northeast 346 398 10,100 -2,100 Descending Boston Center
09:24AM 42.5883 -74.2422 64° Northeast 365 420 9,400 -2,400 Descending Boston Center
09:25AM 42.6247 -74.1839 50° Northeast 288 331 7,700 -2,340 Descending Boston Center
09:25AM 42.6394 -74.1703 34° Northeast 305 351 7,100 -2,280 Descending Boston Center
09:26AM 42.6942 -74.1294 29° Northeast 289 333 5,400 -2,340 Descending Boston Center
09:26AM 42.7153 -74.1072 38° Northeast 282 325 4,800 -1,380 Descending Boston Center
09:27AM 42.7639 -74.0719 28° Northeast 280 322 4,000 -1,020 Descending Boston Center
09:27AM 42.7764 -74.0636 26° Northeast 277 319 3,800 -900 Descending Boston Center
09:28AM 42.8250 -74.0225 32° Northeast 241 277 3,100 -900 Descending Boston Center
09:28AM 42.8333 -74.0142 36° Northeast 262 302 2,900  Descending Boston Center
09:29AM 42.8819 -73.9703 33° Northeast 230 265 3,100 60 Climbing Boston Center
09:29AM 42.8883 -73.9619 44° Northeast 236 272 3,000  Descending Boston Center
09:30AM 42.9369 -73.9092 38° Northeast 245 282 3,100 60 Climbing Boston Center
09:31AM 42.9525 -73.8442 72° East 211 243 3,100 -120 Level Boston Center
09:31AM 42.9403 -73.8214 126° Southeast 197 227 3,000 -360 Descending Boston Center
09:32AM 42.9006 -73.8119 170° South 189 217 2,700 -420 Descending Boston Center